Řízení letového provozu České republiky
Letiste: LKPD Aktualizace: 17.10.2017 23:52:07  UTC
 METAR LKPD 17.10. 23:00 ...
METAR LKPD 172300Z VRB01KT 9999 MIFG NSC 10/08 Q1020=
 TAF LKPD 17.10. 17:00 ...
TAF LKPD 171700Z 1718/1818 VRB02KT CAVOK      BECMG 1720/1723 5000 BCFG BR      TEMPO 1801/1806 1500 BR SCT005      PROB40 TEMPO 1800/1806 0400 FG VV002      BECMG 1808/1811 9999 NSW BKN035=